createdAt,value
2023-02-20T00:02:46.005Z,62.87
2023-02-20T00:05:48.768Z,63.10
2023-02-20T00:08:51.332Z,62.85
2023-02-20T00:11:54.200Z,63.30
2023-02-20T00:14:58.069Z,63.29
2023-02-20T00:18:00.716Z,63.48
2023-02-20T00:21:03.235Z,62.95
2023-02-20T00:24:06.652Z,63.09
2023-02-20T00:27:09.462Z,63.00
2023-02-20T00:30:16.967Z,63.11
2023-02-20T00:33:19.475Z,63.46
2023-02-20T00:36:22.848Z,63.84
2023-02-20T00:39:25.547Z,63.48
2023-02-20T00:42:28.659Z,64.00
2023-02-20T00:45:32.548Z,63.90
2023-02-20T00:48:35.126Z,63.35
2023-02-20T00:51:37.796Z,63.15
2023-02-20T00:54:40.439Z,63.48
2023-02-20T00:57:43.586Z,62.80
2023-02-20T01:00:47.453Z,63.44
2023-02-20T01:03:50.193Z,63.46
2023-02-20T01:06:52.758Z,63.90
2023-02-20T01:09:55.271Z,64.62
2023-02-20T01:12:57.785Z,65.66
2023-02-20T01:16:01.866Z,65.91
2023-02-20T01:19:04.765Z,66.15
2023-02-20T01:22:08.973Z,66.55
2023-02-20T01:25:11.847Z,66.81
2023-02-20T01:28:14.682Z,66.26
2023-02-20T01:31:19.761Z,66.36
2023-02-20T01:34:22.905Z,66.24
2023-02-20T01:37:25.438Z,65.84
2023-02-20T01:40:28.934Z,65.96
2023-02-20T01:43:31.498Z,66.25
2023-02-20T01:46:53.946Z,66.69
2023-02-20T01:49:59.270Z,66.38
2023-02-20T01:53:04.561Z,65.74
2023-02-20T01:56:10.044Z,66.13
2023-02-20T01:59:12.929Z,66.13
2023-02-20T02:02:17.214Z,66.54
2023-02-20T02:05:20.383Z,66.23
2023-02-20T02:08:24.774Z,66.14
2023-02-20T02:11:28.391Z,65.87
2023-02-20T02:14:31.174Z,65.97
2023-02-20T02:17:56.593Z,66.01
2023-02-20T02:21:26.061Z,65.30
2023-02-20T02:24:51.007Z,64.27
2023-02-20T02:28:23.757Z,63.70
2023-02-20T02:31:40.602Z,63.02
2023-02-20T02:35:24.939Z,62.50
2023-02-20T02:38:32.872Z,62.03
2023-02-20T02:41:41.647Z,62.19
2023-02-20T02:44:47.588Z,62.04
2023-02-20T02:47:53.663Z,62.13
2023-02-20T02:51:02.063Z,62.36
2023-02-20T02:54:11.162Z,62.25
2023-02-20T02:57:22.973Z,62.22
2023-02-20T03:00:27.813Z,62.20
2023-02-20T03:03:33.156Z,62.39
2023-02-20T03:06:38.680Z,62.94
2023-02-20T03:09:46.694Z,63.70
2023-02-20T03:12:50.527Z,63.76
2023-02-20T03:15:53.386Z,63.77
2023-02-20T03:18:57.442Z,63.78
2023-02-20T03:22:01.656Z,63.60
2023-02-20T03:25:09.042Z,64.18
2023-02-20T03:28:13.303Z,64.35
2023-02-20T03:31:18.503Z,64.51
2023-02-20T03:34:42.164Z,64.75
2023-02-20T03:38:03.991Z,64.35
2023-02-20T03:41:26.231Z,64.07
2023-02-20T03:44:29.634Z,64.51
2023-02-20T03:47:35.472Z,63.96
2023-02-20T03:50:55.658Z,64.29
2023-02-20T03:53:58.286Z,64.13
2023-02-20T03:57:04.510Z,65.22
2023-02-20T04:00:10.404Z,64.79
2023-02-20T04:03:16.615Z,65.17
2023-02-20T04:06:20.041Z,65.02
2023-02-20T04:09:25.192Z,65.76
2023-02-20T04:12:31.662Z,67.00
2023-02-20T04:15:34.612Z,67.40
2023-02-20T04:18:37.460Z,67.22
2023-02-20T04:21:42.926Z,67.97
2023-02-20T04:24:49.539Z,68.11
2023-02-20T04:27:54.327Z,68.46
2023-02-20T04:30:57.000Z,69.01
2023-02-20T04:33:59.710Z,70.06
2023-02-20T04:37:08.434Z,69.45
2023-02-20T04:40:11.609Z,69.17
2023-02-20T04:43:15.537Z,69.49
2023-02-20T04:46:18.839Z,69.48
2023-02-20T04:49:21.403Z,69.20
2023-02-20T04:52:24.663Z,69.92
2023-02-20T04:55:27.893Z,69.52
2023-02-20T04:58:34.117Z,70.10
2023-02-20T05:01:36.707Z,69.88
2023-02-20T05:04:39.336Z,70.64
2023-02-20T05:07:41.915Z,71.39
2023-02-20T05:10:44.439Z,71.46
2023-02-20T05:13:48.341Z,71.00
2023-02-20T05:16:51.689Z,71.28
2023-02-20T05:19:54.255Z,71.68
2023-02-20T05:22:55.893Z,71.32
2023-02-20T05:25:58.430Z,72.52
2023-02-20T05:29:02.273Z,72.18
2023-02-20T05:32:05.113Z,72.91
2023-02-20T05:35:07.872Z,72.81
2023-02-20T05:38:10.397Z,71.98
2023-02-20T05:41:12.921Z,71.93
2023-02-20T05:44:16.938Z,72.38
2023-02-20T05:47:19.475Z,72.27
2023-02-20T05:50:22.001Z,72.43
2023-02-20T05:53:24.572Z,73.13
2023-02-20T05:56:27.912Z,72.48
2023-02-20T05:59:32.044Z,72.59
2023-02-20T06:02:34.636Z,73.26
2023-02-20T06:05:37.272Z,73.71
2023-02-20T06:08:40.632Z,74.17
2023-02-20T06:11:48.868Z,73.33
2023-02-20T06:14:52.880Z,72.82
2023-02-20T06:17:55.628Z,72.73
2023-02-20T06:20:58.239Z,71.89
2023-02-20T06:24:00.786Z,72.25
2023-02-20T06:27:03.504Z,71.49
2023-02-20T06:30:08.375Z,71.25
2023-02-20T06:36:40.343Z,70.10
2023-02-20T06:39:45.839Z,69.70
2023-02-20T06:42:48.541Z,69.79
2023-02-20T06:45:52.358Z,69.21
2023-02-20T06:48:57.869Z,69.72
2023-02-20T06:52:03.085Z,69.73
2023-02-20T06:55:07.096Z,69.58
2023-02-20T06:58:12.039Z,68.85
2023-02-20T07:01:17.103Z,68.05
2023-02-20T07:04:32.632Z,67.88
2023-02-20T07:07:35.456Z,67.12
2023-02-20T07:10:38.037Z,67.09
2023-02-20T07:13:41.357Z,66.45
2023-02-20T07:16:46.009Z,66.06
2023-02-20T07:20:06.455Z,65.55
2023-02-20T07:23:10.652Z,65.28
2023-02-20T07:26:19.215Z,64.56
2023-02-20T07:29:21.753Z,64.23
2023-02-20T07:32:26.785Z,64.40
2023-02-20T07:35:29.417Z,63.71
2023-02-20T07:38:31.995Z,63.60
2023-02-20T07:41:35.802Z,62.84
2023-02-20T07:44:38.407Z,62.63
2023-02-20T07:47:43.351Z,62.43
2023-02-20T07:54:05.389Z,61.45
2023-02-20T07:57:07.975Z,61.56
2023-02-20T08:00:14.699Z,61.28
2023-02-20T08:03:18.756Z,60.89
2023-02-20T08:06:21.649Z,60.31
2023-02-20T08:09:24.198Z,60.26
2023-02-20T08:12:26.771Z,59.99
2023-02-20T08:15:29.429Z,59.65
2023-02-20T08:18:33.256Z,59.80
2023-02-20T08:21:35.903Z,59.36
2023-02-20T08:24:38.686Z,58.85
2023-02-20T08:27:43.636Z,58.28
2023-02-20T08:30:46.355Z,58.30
2023-02-20T08:38:07.458Z,57.38
2023-02-20T08:41:12.530Z,56.87
2023-02-20T08:44:26.845Z,57.00
2023-02-20T08:47:32.345Z,55.50
2023-02-20T08:50:49.558Z,55.49
2023-02-20T08:53:59.140Z,55.18
2023-02-20T08:57:03.627Z,55.13
2023-02-20T09:00:16.544Z,54.98
2023-02-20T09:03:19.308Z,53.73
2023-02-20T09:06:26.810Z,53.34
2023-02-20T09:09:40.362Z,53.10
2023-02-20T09:12:48.581Z,52.92
2023-02-20T09:15:54.162Z,52.49
2023-02-20T09:18:57.691Z,51.70
2023-02-20T09:22:07.689Z,51.08
2023-02-20T09:25:14.783Z,51.08
2023-02-20T09:28:21.796Z,49.72
2023-02-20T09:31:26.707Z,49.69
2023-02-20T09:34:31.511Z,47.89
2023-02-20T09:37:37.009Z,47.36
2023-02-20T09:40:47.035Z,46.83
2023-02-20T09:43:56.626Z,45.90
2023-02-20T09:47:17.351Z,45.20
2023-02-20T09:50:41.106Z,44.49
2023-02-20T09:53:59.668Z,43.14
2023-02-20T09:57:12.453Z,43.47
2023-02-20T10:00:21.390Z,43.15
2023-02-20T10:03:39.438Z,44.03
2023-02-20T10:06:44.545Z,43.90
2023-02-20T10:09:55.017Z,44.05
2023-02-20T10:13:17.497Z,43.37
2023-02-20T10:16:30.468Z,44.12
2023-02-20T10:19:38.036Z,44.70
2023-02-20T10:22:50.059Z,46.42
2023-02-20T10:25:56.751Z,46.04
2023-02-20T10:32:48.477Z,45.92
2023-02-20T10:35:55.571Z,45.76
2023-02-20T10:39:06.421Z,45.73
2023-02-20T10:42:15.267Z,45.66
2023-02-20T10:45:28.535Z,45.73
2023-02-20T10:48:34.065Z,45.43
2023-02-20T10:51:42.385Z,44.94
2023-02-20T10:55:00.431Z,44.98
2023-02-20T10:58:14.313Z,44.86
2023-02-20T11:01:23.216Z,44.40
2023-02-20T11:04:28.723Z,45.03
2023-02-20T11:07:31.298Z,43.95
2023-02-20T11:10:35.644Z,44.31
2023-02-20T11:13:48.819Z,43.76
2023-02-20T11:16:56.787Z,43.45
2023-02-20T11:20:01.454Z,43.32
2023-02-20T11:23:04.584Z,42.74
2023-02-20T11:26:25.226Z,42.76
2023-02-20T11:29:34.177Z,42.96
2023-02-20T11:32:38.869Z,42.23
2023-02-20T11:35:42.118Z,41.42
2023-02-20T11:38:45.226Z,41.04
2023-02-20T11:41:49.686Z,40.86
2023-02-20T11:45:12.822Z,41.09
2023-02-20T11:48:19.460Z,41.55
2023-02-20T11:51:33.697Z,41.99
2023-02-20T11:54:36.290Z,42.48
2023-02-20T11:57:43.757Z,41.57
2023-02-20T12:00:47.625Z,41.63
2023-02-20T12:03:59.955Z,41.58
2023-02-20T12:07:19.326Z,41.39
2023-02-20T12:10:40.574Z,41.64
2023-02-20T12:13:45.273Z,41.58
2023-02-20T12:17:08.620Z,41.17
2023-02-20T12:20:25.119Z,40.98
2023-02-20T12:23:54.888Z,40.77
2023-02-20T12:27:05.125Z,40.66
2023-02-20T12:30:46.666Z,40.28
2023-02-20T12:34:22.571Z,40.11
2023-02-20T12:37:36.732Z,39.62
2023-02-20T12:40:42.145Z,39.10
2023-02-20T12:43:49.640Z,38.65
2023-02-20T12:46:58.544Z,38.20
2023-02-20T12:50:17.709Z,37.41
2023-02-20T12:53:37.394Z,37.35
2023-02-20T12:57:04.542Z,36.91
2023-02-20T13:00:48.826Z,37.18
2023-02-20T13:04:31.030Z,36.39
2023-02-20T13:07:56.647Z,35.74
2023-02-20T13:11:24.062Z,34.08
2023-02-20T13:14:39.796Z,24.23
2023-02-20T13:18:01.048Z,19.59
2023-02-20T13:21:07.039Z,18.77
2023-02-20T13:24:46.259Z,16.45
2023-02-20T13:28:12.540Z,16.43
2023-02-20T13:31:22.855Z,16.76
2023-02-20T13:34:34.487Z,14.81
2023-02-20T13:38:08.367Z,11.85
2023-02-20T13:45:55.182Z,12.94
2023-02-20T13:48:58.110Z,12.14
2023-02-20T13:52:07.246Z,12.61
2023-02-20T13:55:54.172Z,13.55
2023-02-20T13:59:07.367Z,11.27
2023-02-20T14:06:44.069Z,10.68
2023-02-20T14:10:01.496Z,11.14
2023-02-20T14:13:07.580Z,10.30
2023-02-20T14:16:55.050Z,10.93
2023-02-20T14:20:13.471Z,9.70
2023-02-20T14:23:26.472Z,10.35
2023-02-20T14:26:31.637Z,9.71
2023-02-20T14:29:37.307Z,10.23
2023-02-20T14:32:44.131Z,10.44
2023-02-20T14:35:52.441Z,9.30
2023-02-20T14:39:08.248Z,9.38
2023-02-20T14:42:16.221Z,10.28
2023-02-20T14:45:23.060Z,17.33
2023-02-20T14:48:27.954Z,19.90
2023-02-20T14:51:30.458Z,24.34
2023-02-20T14:54:34.386Z,27.22
2023-02-20T14:57:37.246Z,28.77
2023-02-20T15:00:40.600Z,29.51
2023-02-20T15:03:43.751Z,29.82
2023-02-20T15:06:49.179Z,29.36
2023-02-20T15:09:56.480Z,25.53
2023-02-20T15:13:05.064Z,17.34
2023-02-20T15:16:09.635Z,15.95
2023-02-20T15:19:22.091Z,14.20
2023-02-20T15:22:29.928Z,14.04
2023-02-20T15:25:34.916Z,13.30
2023-02-20T15:28:37.501Z,13.05
2023-02-20T15:31:40.674Z,12.04
2023-02-20T15:34:43.090Z,12.59
2023-02-20T15:37:49.483Z,13.91
2023-02-20T15:40:57.327Z,16.81
2023-02-20T15:44:00.272Z,19.64
2023-02-20T15:47:02.935Z,22.83
2023-02-20T15:50:06.607Z,24.07
2023-02-20T15:53:11.692Z,24.41
2023-02-20T15:56:16.690Z,25.15
2023-02-20T15:59:19.811Z,25.77
2023-02-20T16:02:24.805Z,26.51
2023-02-20T16:05:27.793Z,26.46
2023-02-20T16:08:30.362Z,26.70
2023-02-20T16:11:39.602Z,27.43
2023-02-20T16:14:42.413Z,28.00
2023-02-20T16:17:45.620Z,27.94
2023-02-20T16:20:48.436Z,28.39
2023-02-20T16:23:51.803Z,29.22
2023-02-20T16:26:56.329Z,29.52
2023-02-20T16:30:30.690Z,30.00
2023-02-20T16:33:53.028Z,31.22
2023-02-20T16:37:08.217Z,32.30
2023-02-20T16:40:18.478Z,33.10
2023-02-20T16:43:24.018Z,34.64
2023-02-20T16:46:37.507Z,34.11
2023-02-20T16:49:43.229Z,35.33
2023-02-20T16:52:46.093Z,35.31
2023-02-20T16:55:49.400Z,36.28
2023-02-20T16:58:53.267Z,37.04
2023-02-20T17:01:55.884Z,38.31
2023-02-20T17:05:08.305Z,39.18
2023-02-20T17:08:12.752Z,39.76
2023-02-20T17:11:16.023Z,39.30
2023-02-20T17:14:20.012Z,40.43
2023-02-20T17:17:22.656Z,40.77
2023-02-20T17:20:26.884Z,40.84
2023-02-20T17:23:29.372Z,41.23
2023-02-20T17:26:32.067Z,41.85
2023-02-20T17:29:35.975Z,42.38
2023-02-20T17:32:38.612Z,41.73
2023-02-20T17:35:41.347Z,42.22
2023-02-20T17:38:44.314Z,43.11
2023-02-20T17:41:47.336Z,43.03
2023-02-20T17:44:51.683Z,43.40
2023-02-20T17:47:54.545Z,42.87
2023-02-20T17:50:57.414Z,42.70
2023-02-20T17:53:59.973Z,43.42
2023-02-20T17:57:02.866Z,43.40
2023-02-20T18:00:08.819Z,44.01
2023-02-20T18:03:11.334Z,43.90
2023-02-20T18:06:14.898Z,43.57
2023-02-20T18:09:18.770Z,43.78
2023-02-20T18:12:21.432Z,43.93
2023-02-20T18:15:25.478Z,43.45
2023-02-20T18:18:29.683Z,44.03
2023-02-20T18:21:32.524Z,43.38
2023-02-20T18:24:36.495Z,44.62
2023-02-20T18:27:39.299Z,44.91
2023-02-20T18:30:45.159Z,44.67
2023-02-20T18:33:47.803Z,45.12
2023-02-20T18:36:50.900Z,44.71
2023-02-20T18:39:53.961Z,44.40
2023-02-20T18:42:56.825Z,45.02
2023-02-20T18:46:01.002Z,44.86
2023-02-20T18:49:05.191Z,45.00
2023-02-20T18:52:08.359Z,45.04
2023-02-20T18:55:17.410Z,45.76
2023-02-20T18:58:19.967Z,45.94
2023-02-20T19:01:24.681Z,46.24
2023-02-20T19:04:27.468Z,46.45
2023-02-20T19:07:30.415Z,46.42
2023-02-20T19:10:33.408Z,46.00
2023-02-20T19:13:35.981Z,46.31
2023-02-20T19:16:39.968Z,46.66
2023-02-20T19:19:43.052Z,47.47
2023-02-20T19:22:45.630Z,47.86
2023-02-20T19:25:48.954Z,48.26
2023-02-20T19:28:52.214Z,48.57
2023-02-20T19:31:56.515Z,48.45
2023-02-20T19:34:59.138Z,48.97
2023-02-20T19:38:01.883Z,49.41
2023-02-20T19:41:04.568Z,49.60
2023-02-20T19:44:08.202Z,49.51
2023-02-20T19:47:13.442Z,49.96
2023-02-20T19:50:16.741Z,49.86
2023-02-20T19:53:19.330Z,50.52
2023-02-20T19:56:23.113Z,50.72
2023-02-20T19:59:26.715Z,50.38
2023-02-20T20:02:31.284Z,50.20
2023-02-20T20:05:34.834Z,50.74
2023-02-20T20:08:40.289Z,50.70
2023-02-20T20:11:46.885Z,51.14
2023-02-20T20:14:49.569Z,50.74
2023-02-20T20:17:55.088Z,50.21
2023-02-20T20:20:58.023Z,50.34
2023-02-20T20:24:01.139Z,50.47
2023-02-20T20:27:04.381Z,50.86
2023-02-20T20:30:09.427Z,50.95
2023-02-20T20:33:13.474Z,50.58
2023-02-20T20:36:16.465Z,50.76
2023-02-20T20:42:46.082Z,50.57
2023-02-20T20:45:48.856Z,50.65
2023-02-20T20:48:52.944Z,50.94
2023-02-20T20:51:55.516Z,51.28
2023-02-20T20:55:03.634Z,50.93
2023-02-20T20:58:06.317Z,51.50
2023-02-20T21:01:09.061Z,52.21
2023-02-20T21:04:13.647Z,52.20
2023-02-20T21:07:17.070Z,52.36
2023-02-20T21:10:20.159Z,52.89
2023-02-20T21:13:22.953Z,53.53
2023-02-20T21:16:25.619Z,52.83
2023-02-20T21:19:29.533Z,53.48
2023-02-20T21:22:32.137Z,53.75
2023-02-20T21:25:34.708Z,53.37
2023-02-20T21:28:37.416Z,54.38
2023-02-20T21:31:42.048Z,54.41
2023-02-20T21:34:46.666Z,54.71
2023-02-20T21:37:49.693Z,54.55
2023-02-20T21:40:52.230Z,54.26
2023-02-20T21:44:12.289Z,54.57
2023-02-20T21:47:15.690Z,54.15
2023-02-20T21:50:20.277Z,54.08
2023-02-20T21:53:22.984Z,54.68
2023-02-20T21:56:25.875Z,54.60
2023-02-20T21:59:27.443Z,55.29
2023-02-20T22:02:29.150Z,55.77
2023-02-20T22:05:32.387Z,55.26
2023-02-20T22:08:52.658Z,55.20
2023-02-20T22:12:12.997Z,55.45
2023-02-20T22:15:33.143Z,56.21
2023-02-20T22:18:53.372Z,55.76
2023-02-20T22:22:18.739Z,56.26
2023-02-20T22:25:38.976Z,56.64
2023-02-20T22:28:59.195Z,57.24
2023-02-20T22:32:19.486Z,56.50
2023-02-20T22:35:39.736Z,57.04
2023-02-20T22:39:01.598Z,56.64
2023-02-20T22:42:29.582Z,56.72
2023-02-20T22:45:54.549Z,57.76
2023-02-20T22:49:14.980Z,58.42
2023-02-20T22:52:35.485Z,58.52
2023-02-20T22:55:56.945Z,58.33
2023-02-20T22:59:17.296Z,58.16
2023-02-20T23:02:37.484Z,58.45
2023-02-20T23:06:04.968Z,58.77
2023-02-20T23:09:32.141Z,58.42
2023-02-20T23:12:53.754Z,58.98
2023-02-20T23:16:14.207Z,58.97
2023-02-20T23:19:34.770Z,58.38
2023-02-20T23:22:54.995Z,58.72
2023-02-20T23:26:15.366Z,59.20
2023-02-20T23:29:36.959Z,59.29
2023-02-20T23:32:59.011Z,59.57
2023-02-20T23:36:19.384Z,60.05
2023-02-20T23:39:39.771Z,59.85
2023-02-20T23:43:00.105Z,59.39
2023-02-20T23:46:22.692Z,59.98
2023-02-20T23:49:43.319Z,60.27
2023-02-20T23:53:04.991Z,60.90
2023-02-20T23:56:25.841Z,60.57
2023-02-20T23:59:46.412Z,60.85
